createdAt,value
2018-09-05T00:02:30.383Z,5.67
2018-09-05T00:07:33.427Z,7.30
2018-09-05T00:12:36.481Z,7.60
2018-09-05T00:17:39.554Z,8.60
2018-09-05T00:22:42.655Z,10.43
2018-09-05T00:27:45.723Z,7.90
2018-09-05T00:32:48.778Z,12.00
2018-09-05T00:37:51.839Z,9.37
2018-09-05T00:42:54.899Z,13.20
2018-09-05T00:47:57.975Z,9.67
2018-09-05T00:53:01.016Z,8.77
2018-09-05T00:58:04.068Z,7.93
2018-09-05T01:03:07.130Z,10.87
2018-09-05T01:08:10.175Z,6.90
2018-09-05T01:13:13.223Z,14.20
2018-09-05T01:18:16.260Z,7.27
2018-09-05T01:23:19.323Z,11.37
2018-09-05T01:28:22.366Z,12.27
2018-09-05T01:33:25.442Z,10.00
2018-09-05T01:38:28.631Z,11.53
2018-09-05T01:43:31.685Z,9.30
2018-09-05T01:48:34.827Z,9.97
2018-09-05T01:53:37.848Z,10.40
2018-09-05T01:58:40.885Z,14.67
2018-09-05T02:03:44.031Z,10.73
2018-09-05T02:08:47.090Z,10.70
2018-09-05T02:13:50.147Z,15.53
2018-09-05T02:18:53.166Z,15.53
2018-09-05T02:23:56.209Z,15.30
2018-09-05T02:28:59.215Z,16.70
2018-09-05T02:34:02.223Z,19.87
2018-09-05T02:39:07.599Z,18.57
2018-09-05T02:44:16.199Z,21.80
2018-09-05T02:49:19.299Z,24.90
2018-09-05T02:54:22.330Z,25.67
2018-09-05T02:59:25.357Z,26.70
2018-09-05T03:04:28.441Z,30.80
2018-09-05T03:09:31.480Z,30.77
2018-09-05T03:14:34.543Z,39.33
2018-09-05T03:19:37.588Z,31.73
2018-09-05T03:24:40.626Z,34.83
2018-09-05T03:29:43.658Z,37.30
2018-09-05T03:34:46.672Z,29.10
2018-09-05T03:39:49.756Z,36.47
2018-09-05T03:44:52.851Z,42.30
2018-09-05T03:49:55.879Z,36.90
2018-09-05T03:54:58.898Z,31.90
2018-09-05T04:00:01.926Z,27.50
2018-09-05T04:05:06.055Z,29.27
2018-09-05T04:10:09.040Z,29.50
2018-09-05T04:15:12.239Z,32.90
2018-09-05T04:20:15.240Z,31.40
2018-09-05T04:25:18.267Z,29.43
2018-09-05T04:30:21.357Z,24.70
2018-09-05T04:35:24.415Z,29.40
2018-09-05T04:40:27.441Z,31.87
2018-09-05T04:45:30.463Z,31.73
2018-09-05T04:50:33.483Z,33.57
2018-09-05T04:55:36.540Z,33.20
2018-09-05T05:00:39.560Z,31.03
2018-09-05T05:05:42.649Z,30.53
2018-09-05T05:10:45.682Z,33.70
2018-09-05T05:15:48.731Z,32.67
2018-09-05T05:20:51.771Z,26.60
2018-09-05T05:25:54.865Z,26.80
2018-09-05T05:30:57.890Z,30.90
2018-09-05T05:36:00.967Z,30.30
2018-09-05T05:41:03.998Z,24.30
2018-09-05T05:46:07.410Z,33.10
2018-09-05T05:51:10.443Z,28.37
2018-09-05T05:56:13.715Z,28.10
2018-09-05T06:01:17.144Z,25.40
2018-09-05T06:06:20.278Z,33.10
2018-09-05T06:11:23.144Z,29.20
2018-09-05T06:16:26.167Z,24.23
2018-09-05T06:21:29.202Z,23.93
2018-09-05T06:26:32.262Z,25.47
2018-09-05T06:31:35.451Z,20.87
2018-09-05T06:36:38.536Z,22.77
2018-09-05T06:41:41.560Z,17.93
2018-09-05T06:46:44.591Z,21.80
2018-09-05T06:51:47.632Z,22.87
2018-09-05T06:56:50.667Z,23.47
2018-09-05T07:01:53.675Z,23.37
2018-09-05T07:06:56.749Z,23.70
2018-09-05T07:11:59.922Z,18.17
2018-09-05T07:17:02.955Z,19.00
2018-09-05T07:22:06.036Z,19.13
2018-09-05T07:27:09.171Z,21.37
2018-09-05T07:32:12.408Z,24.90
2018-09-05T07:37:15.440Z,20.20
2018-09-05T07:42:18.515Z,17.77
2018-09-05T07:47:21.567Z,17.83
2018-09-05T07:52:24.627Z,19.57
2018-09-05T07:57:27.783Z,17.53
2018-09-05T08:02:30.767Z,17.43
2018-09-05T08:07:33.803Z,12.43
2018-09-05T08:12:36.863Z,11.50
2018-09-05T08:17:39.974Z,13.53
2018-09-05T08:22:43.114Z,13.50
2018-09-05T08:27:46.139Z,10.80
2018-09-05T08:32:49.180Z,8.60
2018-09-05T08:37:52.335Z,15.90
2018-09-05T08:42:55.322Z,13.03
2018-09-05T08:47:58.299Z,9.73
2018-09-05T08:53:01.375Z,7.93
2018-09-05T08:58:04.463Z,15.13
2018-09-05T09:03:07.565Z,7.40
2018-09-05T09:08:10.674Z,10.53
2018-09-05T09:13:13.724Z,7.60
2018-09-05T09:18:17.195Z,19.30
2018-09-05T09:23:20.387Z,11.83
2018-09-05T09:28:23.460Z,12.60
2018-09-05T09:33:26.479Z,6.40
2018-09-05T09:38:29.527Z,14.10
2018-09-05T09:43:32.563Z,7.67
2018-09-05T09:49:05.003Z,11.43
2018-09-05T09:54:08.032Z,8.90
2018-09-05T09:59:11.059Z,10.53
2018-09-05T10:04:19.495Z,10.27
2018-09-05T10:09:27.938Z,8.70
2018-09-05T10:14:31.840Z,7.27
2018-09-05T10:19:35.104Z,9.60
2018-09-05T10:24:38.126Z,27.50
2018-09-05T10:29:41.173Z,10.60
2018-09-05T10:34:44.419Z,12.43
2018-09-05T10:39:47.508Z,17.13
2018-09-05T10:44:50.508Z,8.87
2018-09-05T10:49:53.507Z,11.00
2018-09-05T10:54:56.538Z,7.47
2018-09-05T10:59:59.585Z,15.37
2018-09-05T11:05:02.595Z,14.53
2018-09-05T11:10:05.654Z,15.43
2018-09-05T11:15:08.691Z,8.60
2018-09-05T11:20:12.327Z,12.77
2018-09-05T11:25:15.502Z,7.17
2018-09-05T11:30:18.531Z,5.20
2018-09-05T11:35:21.666Z,5.53
2018-09-05T11:40:24.696Z,6.00
2018-09-05T11:45:27.694Z,5.17
2018-09-05T11:50:30.691Z,9.20
2018-09-05T11:55:33.724Z,5.47
2018-09-05T12:00:36.796Z,6.30
2018-09-05T12:05:39.883Z,7.50
2018-09-05T12:10:42.917Z,6.60
2018-09-05T12:15:45.986Z,7.67
2018-09-05T12:20:49.042Z,6.27
2018-09-05T12:25:52.103Z,6.97
2018-09-05T12:30:55.261Z,8.70
2018-09-05T12:35:58.427Z,10.23
2018-09-05T12:41:01.465Z,5.10
2018-09-05T12:46:04.607Z,7.53
2018-09-05T12:51:07.687Z,7.23
2018-09-05T12:56:10.841Z,7.30
2018-09-05T13:01:13.993Z,6.23
2018-09-05T13:06:17.270Z,7.43
2018-09-05T13:11:22.489Z,6.27
2018-09-05T13:16:25.502Z,29.90
2018-09-05T13:21:28.577Z,12.43
2018-09-05T13:26:31.681Z,9.33
2018-09-05T13:31:34.675Z,5.27
2018-09-05T13:36:37.710Z,12.93
2018-09-05T13:41:41.049Z,10.00
2018-09-05T13:46:44.082Z,8.37
2018-09-05T13:51:52.821Z,3.67
2018-09-05T13:56:55.907Z,5.40
2018-09-05T14:01:59.038Z,4.97
2018-09-05T14:07:02.075Z,8.90
2018-09-05T14:12:05.318Z,4.30
2018-09-05T14:17:08.355Z,7.33
2018-09-05T14:22:11.394Z,5.10
2018-09-05T14:27:14.503Z,5.80
2018-09-05T14:32:17.551Z,7.50
2018-09-05T14:37:20.619Z,3.93
2018-09-05T14:42:23.650Z,6.17
2018-09-05T14:47:26.668Z,6.13
2018-09-05T14:52:29.676Z,4.50
2018-09-05T14:57:32.685Z,7.20
2018-09-05T15:02:35.728Z,4.73
2018-09-05T15:07:38.787Z,8.90
2018-09-05T15:12:41.815Z,6.77
2018-09-05T15:17:45.006Z,6.03
2018-09-05T15:22:48.057Z,7.77
2018-09-05T15:27:51.117Z,4.73
2018-09-05T15:32:54.195Z,5.20
2018-09-05T15:37:57.284Z,5.10
2018-09-05T15:43:00.306Z,7.70
2018-09-05T15:48:03.359Z,3.83
2018-09-05T15:53:06.416Z,5.10
2018-09-05T15:58:09.470Z,4.13
2018-09-05T16:03:12.563Z,5.90
2018-09-05T16:08:15.571Z,6.63
2018-09-05T16:13:18.635Z,8.73
2018-09-05T16:18:21.668Z,6.17
2018-09-05T16:23:24.775Z,9.27
2018-09-05T16:28:27.875Z,18.33
2018-09-05T16:33:30.875Z,7.47
2018-09-05T16:38:33.898Z,7.87
2018-09-05T16:43:36.936Z,8.00
2018-09-05T16:48:40.075Z,8.60
2018-09-05T16:53:43.032Z,5.07
2018-09-05T16:58:46.935Z,7.13
2018-09-05T17:03:51.209Z,8.57
2018-09-05T17:08:54.232Z,4.20
2018-09-05T17:13:57.267Z,5.57
2018-09-05T17:19:00.290Z,12.37
2018-09-05T17:24:03.550Z,11.27
2018-09-05T17:29:07.563Z,9.93
2018-09-05T17:34:10.793Z,6.40
2018-09-05T17:39:13.799Z,13.07
2018-09-05T17:44:16.850Z,18.77
2018-09-05T17:49:19.877Z,8.43
2018-09-05T17:54:22.900Z,9.30
2018-09-05T17:59:25.960Z,8.83
2018-09-05T18:04:29.115Z,9.53
2018-09-05T18:09:32.161Z,7.50
2018-09-05T18:14:35.272Z,14.23
2018-09-05T18:19:38.435Z,7.97
2018-09-05T18:24:41.571Z,4.93
2018-09-05T18:29:44.624Z,5.60
2018-09-05T18:34:47.905Z,8.77
2018-09-05T18:39:50.958Z,15.33
2018-09-05T18:44:54.143Z,11.00
2018-09-05T18:49:57.413Z,8.90
2018-09-05T18:55:00.532Z,8.10
2018-09-05T19:00:04.478Z,4.87
2018-09-05T19:05:07.969Z,6.30
2018-09-05T19:10:11.035Z,7.87
2018-09-05T19:15:14.188Z,8.50
2018-09-05T19:20:17.571Z,10.10
2018-09-05T19:25:20.631Z,8.97
2018-09-05T19:30:23.699Z,6.13
2018-09-05T19:35:26.816Z,9.00
2018-09-05T19:40:29.832Z,8.20
2018-09-05T19:45:33.147Z,6.93
2018-09-05T19:50:36.459Z,5.70
2018-09-05T19:55:39.608Z,7.60
2018-09-05T20:00:42.709Z,5.20
2018-09-05T20:05:45.777Z,9.80
2018-09-05T20:10:48.796Z,7.07
2018-09-05T20:15:51.888Z,6.37
2018-09-05T20:20:54.959Z,7.47
2018-09-05T20:25:57.999Z,4.93
2018-09-05T20:31:01.040Z,13.13
2018-09-05T20:36:04.112Z,24.83
2018-09-05T20:41:07.134Z,8.83
2018-09-05T20:46:10.222Z,6.23
2018-09-05T20:51:13.285Z,5.80
2018-09-05T20:56:16.352Z,6.73
2018-09-05T21:01:19.372Z,8.33
2018-09-05T21:06:22.408Z,7.90
2018-09-05T21:11:25.434Z,28.30
2018-09-05T21:16:28.587Z,6.23
2018-09-05T21:21:31.651Z,11.03
2018-09-05T21:26:35.143Z,7.43
2018-09-05T21:31:38.162Z,7.33
2018-09-05T21:36:41.206Z,6.33
2018-09-05T21:41:44.242Z,6.23
2018-09-05T21:46:47.274Z,10.60
2018-09-05T21:51:50.443Z,8.87
2018-09-05T21:56:53.510Z,8.07
2018-09-05T22:01:56.516Z,6.50
2018-09-05T22:06:59.522Z,5.87
2018-09-05T22:12:02.555Z,9.63
2018-09-05T22:17:05.705Z,7.77
2018-09-05T22:22:08.766Z,9.50
2018-09-05T22:27:11.804Z,6.90
2018-09-05T22:32:14.969Z,7.30
2018-09-05T22:37:18.059Z,10.57
2018-09-05T22:42:21.048Z,8.67
2018-09-05T22:47:35.472Z,8.83
2018-09-05T22:53:04.417Z,8.33
2018-09-05T23:00:26.477Z,9.40
2018-09-05T23:08:45.784Z,7.20
2018-09-05T23:14:04.135Z,13.20
2018-09-05T23:19:31.614Z,6.90
2018-09-05T23:24:34.643Z,10.27
2018-09-05T23:29:37.643Z,9.50
2018-09-05T23:34:40.643Z,9.03
2018-09-05T23:39:43.655Z,12.20
2018-09-05T23:44:46.646Z,7.43
2018-09-05T23:49:49.649Z,8.27
2018-09-05T23:54:52.744Z,10.80
2018-09-05T23:59:55.752Z,7.90
